Grand Rapids, MN

3:01 PM CDT on September 02, 2014 (GMT -0500)
Southwest | Change Station
CLOSE
Current Station
Personal Weather Station
Location: Grand Rapids, MN
Elevation: 1322 ft
Nearby Weather Stations

Elev 1322 ft 47.23 °N, 93.54 °W | Updated 1 minute ago

Mostly Cloudy
Mostly Cloudy
74.7 °F
Feels Like 78 °F
N
9.8
Wind Variable Wind from NW
Gusts 9.8 mph

Today
High -- | Low -- °F
--% Chance of Precip.
Yesterday
High -- | Low -- °F
Precip. -- in
6:34 AM 7:52 PM
First Quarter, 54% visible
Pressure 29.81 in
Visibility 10.0 miles
Clouds Few 6000 ft
Mostly Cloudy 12000 ft
Heat Index 78 °F
Dew Point 54 °F
Humidity 49%
Rainfall 0.00 in
Snow Depth Not available.
UV 3 out of 12
Pollen 8.80 out of 12
Air Quality Not available.
Flu Activity Not available.
METAR KGPZ 021955Z AUTO 23009KT 10SM FEW060 BKN120 22/10 A2981 RMK AO1 LTG DSNT NW

More Conditions Fewer Conditions

Pressure 29.81 in
Visibility 10.0 miles
Clouds Few 6000 ft
Mostly Cloudy 12000 ft
Heat Index 78 °F
Dew Point 54 °F
Humidity 49%
Rainfall 0.00 in
Snow Depth Not available.
UV 3 out of 12
Pollen 8.80 out of 12
Air Quality Not available.
Flu Activity Not available.
METAR KGPZ 021955Z AUTO 23009KT 10SM FEW060 BKN120 22/10 A2981 RMK AO1 LTG DSNT NW

More Conditions Fewer Conditions

10-Day Weather Forecast

Almanac

Astronomy

Sep. 02, 2014 Rise Set
Actual Time 6:34 AM CDT 7:52 PM CDT
Civil Twilight 6:02 AM CDT 8:23 PM CDT
Nautical Twilight 5:24 AM CDT 9:01 PM CDT
Astronomical Twilight 4:43 AM CDT 9:42 PM CDT
Moon 2:48 PM CDT No Moon Set
Length of Visible Light 14h 20m
Length of Day
13h 17m
Tomorrow will be 3m 17s shorter.
First Quarter, 54% of the Moon is Illuminated
Today
First Quarter
Sep 8
Full
Sep 15
Last Quarter
Sep 24
New
Oct 1
First Quarter

Today's Extremes

State Highs State Lows

Community

WunderPhotos

Upload Photos

1,749,753 photos uploaded!

WunderBlogs® & News

By Dr. Jeff Masters
Director of Meteorology, Weather Underground
By Kari Strenfel
Meteorologist, Weather Underground
By Christopher C. Burt
Weather Historian, Weather Underground
September 2, 2014
September 2, 2014
September 2, 2014

Nearby

Snow Depth

Station Depth Elevation
No new snow has been reported.

Earthquake Activity

City Distance Mag. Time & Date
No recent earthquake activity has been reported nearby.
Minimum magnitude displayed is 2.5.

Coastal Water Temperatures

Place Temperature
No Stations Reporting

Nearby Weather Stations